FW7622 Weather Reports


Display with metric or nautical units.
time (UTC)temp
F
wind
direction
speed
MPH
gust
MPH
rain 1hr
in
rain 24hr
in
rain mn
in
humidity
%
barometer
mb
20240227234526 32 237 4.0 6.0 0.00 0.00 0.00 73 997.6
20240227234024 32 316 6.0 10.0 0.00 0.00 0.00 73 997.2
20240227233524 32 15 3.0 8.0 0.00 0.00 0.00 73 996.8
20240227233022 33 314 4.0 6.0 0.00 0.00 0.00 72 996.8
20240227232522 33 346 4.0 6.0 0.00 0.00 0.00 72 996.4
20240227232020 34 291 4.0 7.0 0.00 0.00 0.00 72 996.1
20240227231519 34 257 3.0 5.0 0.00 0.00 0.00 72 995.8
20240227231017 35 73 5.0 8.0 0.00 0.00 0.00 71 995.8
20240227230516 35 298 6.0 11.0 0.00 0.00 0.00 71 996.1
20240227230016 36 165 3.0 5.0 0.00 0.00 0.00 71 995.8
20240227225515 37 191 1.0 2.0 0.00 0.00 0.00 71 995.1
20240227225015 38 268 9.0 13.0 0.00 0.00 0.00 70 994.4
20240227224515 39 175 1.0 1.0 0.00 0.00 0.00 70 994.1
20240227224015 39 274 2.0 2.0 0.00 0.00 0.00 70 993.7
20240227223515 40 354 2.0 3.0 0.00 0.00 0.00 70 993.3
20240227223013 40 324 6.0 8.0 0.00 0.00 0.00 70 993.3
20240227222512 40 220 5.0 7.0 0.00 0.00 0.00 69 993.3
20240227222013 41 306 8.0 10.0 0.00 0.00 0.00 69 993.3
20240227221512 41 6 7.0 9.0 0.00 0.00 0.00 68 993.0
20240227221011 42 346 8.0 10.0 0.00 0.00 0.00 68 992.6
20240227220509 43 343 2.0 3.0 0.00 0.00 0.00 67 992.3
20240227220009 44 53 10.0 16.0 0.00 0.00 0.00 64 992.3
20240227215507 45 164 3.0 5.0 0.00 0.00 0.00 65 992.3
20240227215006 45 103 5.0 6.0 0.00 0.00 0.00 65 991.9
20240227214505 45 44 3.0 7.0 0.00 0.00 0.00 65 991.9
20240227214005 46 318 5.0 6.0 0.00 0.00 0.00 65 991.9
20240227213503 46 247 6.0 7.0 0.00 0.00 0.00 64 991.9
20240227213001 48 173 5.0 7.0 0.00 0.00 0.00 63 991.9
20240227212502 48 25 3.0 6.0 0.00 0.00 0.00 62 991.6
20240227212001 50 213 3.0 5.0 0.00 0.00 0.00 60 991.3
20240227211459 51 354 5.0 10.0 0.00 0.00 0.00 60 990.6
20240227210957 51 246 2.0 3.0 0.00 0.00 0.00 61 990.6
20240227210457 51 156 6.0 10.0 0.00 0.00 0.00 60 990.6
20240227205956 51 156 7.0 10.0 0.00 0.00 0.00 60 990.6
20240227205455 52 7 3.0 3.0 0.00 0.00 0.00 59 990.6
20240227204953 52 348 2.0 3.0 0.00 0.00 0.00 59 990.6
20240227204451 52 240 10.0 14.0 0.00 0.00 0.00 58 990.2
20240227203950 52 280 2.0 3.0 0.00 0.00 0.00 60 990.2
20240227203448 53 206 5.0 7.0 0.00 0.00 0.00 58 990.2
20240227202946 54 203 1.0 1.0 0.00 0.00 0.00 58 989.8
20240227202446 54 255 7.0 9.0 0.00 0.00 0.00 57 989.8
20240227201945 53 256 4.0 6.0 0.00 0.00 0.00 59 989.8
20240227201444 53 226 3.0 5.0 0.00 0.00 0.00 60 989.8
20240227200944 53 182 5.0 9.0 0.00 0.00 0.00 59 989.8
20240227200442 54 285 5.0 7.0 0.00 0.00 0.00 59 989.5
20240227195940 54 187 3.0 3.0 0.00 0.00 0.00 59 989.5
20240227195438 54 154 2.0 2.0 0.00 0.00 0.00 60 988.8
20240227194938 53 221 4.0 7.0 0.00 0.00 0.00 60 988.8
20240227194436 54 305 5.0 9.0 0.00 0.00 0.00 59 988.8
20240227193935 54 197 1.0 2.0 0.00 0.00 0.00 60 988.8
20240227193433 54 192 5.0 6.0 0.00 0.00 0.00 60 988.8
20240227192933 54 356 1.0 2.0 0.00 0.00 0.00 61 988.8
20240227192432 55 219 4.0 7.0 0.00 0.00 0.00 60 988.4
20240227191932 56 311 7.0 8.0 0.00 0.00 0.00 58 988.4
20240227191430 57 186 1.0 2.0 0.00 0.00 0.00 55 988.4
20240227190930 58 202 3.0 5.0 0.00 0.00 0.00 55 988.1
20240227190428 58 239 5.0 8.0 0.00 0.00 0.00 53 988.1
20240227185926 59 249 4.0 6.0 0.00 0.00 0.00 52 987.8
20240227185425 57 200 4.0 7.0 0.00 0.00 0.00 52 987.8
20240227184924 59 198 2.0 2.0 0.00 0.00 0.00 52 987.8
20240227184424 59 247 4.0 6.0 0.00 0.00 0.00 51 987.8
20240227183924 59 193 3.0 5.0 0.00 0.00 0.00 52 987.8
20240227183424 59 262 4.0 6.0 0.00 0.00 0.00 52 987.8
20240227182923 59 50 2.0 2.0 0.00 0.00 0.00 53 987.8
20240227182421 58 174 0.0 0.0 0.00 0.00 0.00 55 988.1
20240227181919 59 273 2.0 5.0 0.00 0.00 0.00 55 987.8
20240227181417 59 225 2.0 3.0 0.00 0.00 0.00 54 988.1
20240227180915 59 198 1.0 3.0 0.00 0.00 0.00 54 987.8
20240227180412 58 183 3.0 5.0 0.00 0.00 0.00 54 987.8
20240227175911 58 173 1.0 2.0 0.00 0.00 0.00 54 987.8
20240227175411 57 204 3.0 5.0 0.00 0.00 0.00 55 987.8
20240227174909 56 200 2.0 2.0 0.00 0.00 0.00 56 987.4
20240227174408 56 177 3.0 3.0 0.00 0.00 0.00 56 987.4
20240227173907 56 184 3.0 3.0 0.00 0.00 0.00 57 987.4
20240227173406 56 173 2.0 2.0 0.00 0.00 0.00 56 987.4
20240227172904 55 192 2.0 2.0 0.00 0.00 0.00 56 987.4
20240227172402 55 182 1.0 2.0 0.00 0.00 0.00 57 987.4
20240227171900 55 190 0.0 1.0 0.00 0.00 0.00 57 987.4
20240227171358 55 184 2.0 2.0 0.00 0.00 0.00 58 987.4
20240227170857 54 202 1.0 2.0 0.00 0.00 0.00 58 987.1
20240227170356 54 187 1.0 1.0 0.00 0.00 0.00 60 987.4
20240227165856 53 182 2.0 2.0 0.00 0.00 0.00 61 987.4
20240227165356 52 183 1.0 1.0 0.00 0.00 0.00 61 987.4
20240227164855 52 216 2.0 2.0 0.00 0.00 0.00 62 987.4
20240227164353 52 233 1.0 2.0 0.00 0.00 0.00 64 987.8
20240227163851 51 177 0.0 1.0 0.00 0.00 0.00 64 987.8
20240227163350 50 183 1.0 2.0 0.00 0.00 0.00 65 987.8
20240227162848 50 206 1.0 1.0 0.00 0.00 0.00 66 987.8
20240227162348 50 171 0.0 0.0 0.00 0.00 0.00 66 988.1
20240227161848 48 175 0.0 0.0 0.00 0.00 0.00 68 988.1
20240227161347 49 177 1.0 1.0 0.00 0.00 0.00 69 988.1
20240227160846 48 168 1.0 1.0 0.00 0.00 0.00 68 988.1
20240227160344 48 213 1.0 1.0 0.00 0.00 0.00 69 987.8
20240227155843 48 177 0.0 0.0 0.00 0.00 0.00 70 987.8
20240227155341 47 192 1.0 1.0 0.00 0.00 0.00 70 987.8
20240227154839 46 203 2.0 2.0 0.00 0.00 0.00 73 988.1
20240227154338 45 179 2.0 2.0 0.00 0.00 0.00 75 988.1
20240227153838 46 200 1.0 2.0 0.00 0.00 0.00 74 987.8
20240227153336 45 176 0.0 1.0 0.00 0.00 0.00 73 988.1
20240227152835 46 171 0.0 0.0 0.00 0.00 0.00 72 987.8
20240227152335 44 166 0.0 0.0 0.00 0.00 0.00 76 987.8
20240227151835 44 177 0.0 0.0 0.00 0.00 0.00 77 988.1
20240227151334 43 142 1.0 1.0 0.00 0.00 0.00 77 987.8
20240227150831 44 168 0.0 0.0 0.00 0.00 0.00 76 987.8
20240227150331 42 128 1.0 1.0 0.00 0.00 0.00 78 987.4
20240227145830 42 158 0.0 0.0 0.00 0.00 0.00 78 987.4
20240227145329 41 130 1.0 1.0 0.00 0.00 0.00 78 987.8
20240227144827 40 164 0.0 0.0 0.00 0.00 0.00 80 987.8
20240227144325 41 157 0.0 0.0 0.00 0.00 0.00 78 987.8
20240227143824 41 158 0.0 0.0 0.00 0.00 0.00 77 988.1
20240227143323 39 158 0.0 0.0 0.00 0.00 0.00 80 988.1
20240227142823 37 157 0.0 0.0 0.00 0.00 0.00 84 988.1
20240227142322 35 159 0.0 0.0 0.00 0.00 0.00 90 988.1
20240227141821 32 159 0.0 0.0 0.00 0.00 0.00 94 988.4
20240227141319 31 160 0.0 0.0 0.00 0.00 0.00 94 988.4
20240227140817 31 160 0.0 0.0 0.00 0.00 0.00 93 988.4
20240227140317 31 160 0.0 0.0 0.00 0.00 0.00 94 988.4
20240227135816 30 160 0.0 0.0 0.00 0.00 0.00 94 988.1
20240227135315 30 161 0.0 0.0 0.00 0.00 0.00 96 988.4
20240227134814 28 159 0.0 0.0 0.00 0.00 0.00 98 988.4
20240227134313 27 159 0.0 0.0 0.00 0.00 0.00 99 988.8
20240227133812 26 151 1.0 1.0 0.00 0.00 0.00 99 988.8
20240227133311 26 162 0.0 0.0 0.00 0.00 0.00 99 988.8
20240227132809 25 162 0.0 0.0 0.00 0.00 0.00 99 988.8
20240227132307 24 162 0.0 0.0 0.00 0.00 0.00 99 989.1
20240227131806 24 162 0.0 0.0 0.00 0.00 0.00 99 988.8
20240227131305 24 162 0.0 0.0 0.00 0.00 0.00 99 988.8
20240227130805 24 162 0.0 0.0 0.00 0.00 0.00 99 988.8
20240227130305 23 162 0.0 0.0 0.00 0.00 0.00 99 988.8
20240227125803 23 162 0.0 0.0 0.00 0.00 0.00 99 988.8
20240227125305 23 162 0.0 0.0 0.00 0.00 0.00 99 988.8
20240227124802 23 162 0.0 0.0 0.00 0.00 0.00 99 989.1
20240227124259 23 162 0.0 0.0 0.00 0.00 0.00 99 988.8
20240227123758 24 162 0.0 0.0 0.00 0.00 0.00 99 988.8
20240227123257 23 162 0.0 0.0 0.00 0.00 0.00 99 989.1
20240227122755 23 162 0.0 0.0 0.00 0.00 0.00 99 988.8
20240227122254 24 162 0.0 0.0 0.00 0.00 0.00 99 988.8
20240227121753 24 160 0.0 0.0 0.00 0.00 0.00 99 989.1
20240227121251 24 163 0.0 0.0 0.00 0.00 0.00 99 989.1
20240227120749 24 163 0.0 1.0 0.00 0.00 0.00 99 989.1
20240227120249 24 164 0.0 0.0 0.00 0.00 0.00 99 989.1
20240227115747 24 161 0.0 0.0 0.00 0.00 0.00 99 989.1
20240227115246 24 141 1.0 1.0 0.00 0.00 0.00 99 989.1
20240227114745 24 145 1.0 1.0 0.00 0.00 0.00 99 989.5
20240227114243 24 163 0.0 0.0 0.00 0.00 0.00 99 989.5
20240227113742 24 163 0.0 1.0 0.00 0.00 0.00 99 989.5
20240227113240 24 163 0.0 0.0 0.00 0.00 0.00 98 989.5
20240227112740 24 162 0.0 0.0 0.00 0.00 0.00 98 989.5
20240227112239 24 166 1.0 1.0 0.00 0.00 0.00 98 989.5
20240227111738 24 170 0.0 0.0 0.00 0.00 0.00 98 989.5
20240227111236 24 170 0.0 0.0 0.00 0.00 0.00 98 989.5
20240227110735 24 170 0.0 0.0 0.00 0.00 0.00 98 989.8
20240227110234 24 174 0.0 0.0 0.00 0.00 0.00 98 989.8
20240227105733 24 175 0.0 0.0 0.00 0.00 0.00 98 989.8
20240227105232 24 175 0.0 0.0 0.00 0.00 0.00 98 989.8
20240227104731 24 175 0.0 0.0 0.00 0.00 0.00 98 989.5
20240227104229 24 175 0.0 0.0 0.00 0.00 0.00 98 989.5
20240227103729 25 165 0.0 0.0 0.00 0.00 0.00 97 989.8
20240227103228 25 160 0.0 1.0 0.00 0.00 0.00 97 989.5
20240227102728 25 159 0.0 1.0 0.00 0.00 0.00 97 989.5
20240227102228 25 167 0.0 0.0 0.00 0.00 0.00 97 989.5
20240227101727 25 167 0.0 1.0 0.00 0.00 0.00 97 989.8
20240227101226 25 167 0.0 0.0 0.00 0.00 0.00 97 989.8
20240227100726 26 160 0.0 0.0 0.00 0.00 0.00 97 989.8
20240227100224 26 153 1.0 1.0 0.00 0.00 0.00 97 989.8
20240227095723 25 136 1.0 1.0 0.00 0.00 0.00 98 989.8
20240227095222 25 167 0.0 0.0 0.00 0.00 0.00 97 989.8
20240227094721 25 167 0.0 0.0 0.00 0.00 0.00 97 990.2
20240227094220 25 167 0.0 0.0 0.00 0.00 0.00 97 989.8
20240227093721 26 167 0.0 0.0 0.00 0.00 0.00 97 989.8
20240227093220 26 167 0.0 0.0 0.00 0.00 0.00 97 989.8
20240227092720 26 167 0.0 0.0 0.00 0.00 0.00 96 989.8
20240227092219 25 165 0.0 0.0 0.00 0.00 0.00 96 990.2
20240227091717 26 161 0.0 0.0 0.00 0.00 0.00 96 990.2
20240227091216 26 156 1.0 1.0 0.00 0.00 0.00 96 990.2
20240227090715 26 157 0.0 0.0 0.00 0.00 0.00 97 990.6
20240227090215 26 156 0.0 1.0 0.00 0.00 0.00 97 990.6
20240227085715 25 167 0.0 0.0 0.00 0.00 0.00 96 990.2
20240227085214 26 167 0.0 0.0 0.00 0.00 0.00 96 990.6
20240227084713 26 167 0.0 0.0 0.00 0.00 0.00 96 990.6
20240227084213 26 166 0.0 0.0 0.00 0.00 0.00 96 990.6
20240227083713 26 166 0.0 0.0 0.00 0.00 0.00 96 990.6
20240227083212 26 157 0.0 1.0 0.00 0.00 0.00 96 990.9
20240227082711 26 151 1.0 1.0 0.00 0.00 0.00 96 990.9
20240227082210 26 164 0.0 0.0 0.00 0.00 0.00 96 990.9
20240227081709 26 158 0.0 0.0 0.00 0.00 0.00 97 990.6
20240227081209 26 157 1.0 1.0 0.00 0.00 0.00 97 990.9
20240227080708 26 168 1.0 1.0 0.00 0.00 0.00 97 990.9
20240227080206 26 178 0.0 0.0 0.00 0.00 0.00 97 991.3
20240227075706 26 178 0.0 0.0 0.00 0.00 0.00 97 991.3
20240227075204 26 173 0.0 0.0 0.00 0.00 0.00 97 991.3
20240227074702 26 174 0.0 0.0 0.00 0.00 0.00 96 990.9
20240227074202 26 174 0.0 0.0 0.00 0.00 0.00 96 991.3
20240227073700 26 174 0.0 0.0 0.00 0.00 0.00 96 990.9
20240227073200 26 174 0.0 0.0 0.00 0.00 0.00 96 991.3
20240227072658 26 173 0.0 0.0 0.00 0.00 0.00 96 990.9
20240227072157 26 158 0.0 0.0 0.00 0.00 0.00 96 991.3
20240227071656 27 155 1.0 1.0 0.00 0.00 0.00 96 990.9
20240227071155 27 155 0.0 1.0 0.00 0.00 0.00 96 991.3
20240227070655 27 168 0.0 0.0 0.00 0.00 0.00 96 991.3
20240227070154 27 161 0.0 0.0 0.00 0.00 0.00 96 990.9
20240227065652 28 153 1.0 1.0 0.00 0.00 0.00 96 991.3
20240227065152 27 141 1.0 1.0 0.00 0.00 0.00 96 991.3
20240227064651 27 163 0.0 0.0 0.00 0.00 0.00 96 991.3
20240227064149 27 172 0.0 0.0 0.00 0.00 0.00 95 991.6
20240227063648 27 172 0.0 0.0 0.00 0.00 0.00 95 991.3
20240227063147 27 172 0.0 0.0 0.00 0.00 0.00 95 991.3
20240227062646 27 172 0.0 0.0 0.00 0.00 0.00 95 991.3
20240227062145 27 155 0.0 0.0 0.00 0.00 0.00 95 991.3
20240227061643 27 180 0.0 0.0 0.00 0.00 0.00 94 990.9
20240227061142 27 181 0.0 0.0 0.00 0.00 0.00 94 991.6
20240227060642 28 181 0.0 0.0 0.00 0.00 0.00 93 991.6
20240227060141 28 178 0.0 1.0 0.00 0.00 0.00 93 991.6
20240227055640 28 149 1.0 1.0 0.00 0.00 0.00 93 991.3
20240227055138 28 153 1.0 1.0 0.00 0.00 0.00 93 991.3
20240227054637 28 146 1.0 1.0 0.00 0.00 0.00 93 991.3
20240227054135 28 136 1.0 1.0 0.00 0.00 0.00 93 991.3
20240227053635 28 137 1.0 1.0 0.00 0.00 0.00 93 991.6
20240227053133 28 158 0.0 1.0 0.00 0.00 0.00 92 991.3
20240227052633 28 166 0.0 0.0 0.00 0.00 0.00 92 991.6
20240227052131 28 167 0.0 0.0 0.00 0.00 0.00 92 991.3
20240227051630 28 167 0.0 0.0 0.00 0.00 0.00 92 991.3
20240227051129 28 160 0.0 0.0 0.00 0.00 0.00 92 991.3
20240227050628 29 160 0.0 0.0 0.00 0.00 0.00 91 991.6
20240227050127 29 159 0.0 0.0 0.00 0.00 0.00 91 991.6
20240227045625 29 147 1.0 1.0 0.00 0.00 0.00 91 991.6
20240227045124 29 162 0.0 0.0 0.00 0.00 0.00 91 991.6
20240227044624 29 160 0.0 1.0 0.00 0.00 0.00 91 991.6
20240227044122 29 159 1.0 1.0 0.00 0.00 0.00 91 991.6
20240227043622 30 166 0.0 0.0 0.00 0.00 0.00 91 991.6
20240227043121 30 181 0.0 0.0 0.00 0.00 0.00 91 991.6
20240227042620 30 181 1.0 1.0 0.00 0.00 0.00 91 991.6
20240227042119 30 181 0.0 0.0 0.00 0.00 0.00 88 991.6
20240227041618 30 181 0.0 0.0 0.00 0.00 0.00 87 991.6
20240227041117 31 182 0.0 0.0 0.00 0.00 0.00 86 991.6
20240227040616 32 149 1.0 1.0 0.00 0.00 0.00 88 991.6
20240227040114 32 154 1.0 1.0 0.00 0.00 0.00 87 991.6
20240227035613 31 161 0.0 1.0 0.00 0.00 0.00 87 991.6
20240227035111 32 139 1.0 1.0 0.00 0.00 0.00 87 991.9
20240227034610 32 148 1.0 1.0 0.00 0.00 0.00 88 991.9
20240227034109 32 135 1.0 1.0 0.00 0.00 0.00 87 991.9
20240227033607 32 163 0.0 0.0 0.00 0.00 0.00 85 991.9
20240227033107 33 164 0.0 0.0 0.00 0.00 0.00 85 991.9
20240227032606 32 150 1.0 1.0 0.00 0.00 0.00 86 992.3
20240227032106 32 166 0.0 0.0 0.00 0.00 0.00 86 991.9
20240227031606 32 166 0.0 0.0 0.00 0.00 0.00 86 992.3
20240227031104 32 166 0.0 0.0 0.00 0.00 0.00 85 992.3
20240227030602 33 166 0.0 0.0 0.00 0.00 0.00 84 992.3
20240227030102 33 165 0.0 0.0 0.00 0.00 0.00 84 991.9
20240227025601 33 165 1.0 1.0 0.00 0.00 0.00 84 991.9
20240227025101 34 169 0.0 0.0 0.00 0.00 0.00 83 991.9
20240227024559 34 169 0.0 0.0 0.00 0.00 0.00 82 992.3
20240227024059 35 169 0.0 0.0 0.00 0.00 0.00 81 992.3
20240227023558 35 169 0.0 0.0 0.00 0.00 0.00 81 992.3
20240227023057 36 159 1.0 1.0 0.00 0.00 0.00 80 991.9
20240227022555 37 162 1.0 1.0 0.00 0.00 0.00 79 992.3
20240227022054 38 160 0.0 0.0 0.00 0.00 0.00 79 991.9
20240227021553 39 159 0.0 1.0 0.00 0.00 0.00 77 991.9
20240227021052 38 149 1.0 1.0 0.00 0.00 0.00 78 991.9
20240227020550 39 160 0.0 0.0 0.00 0.00 0.00 77 992.3
20240227020048 40 157 0.0 1.0 0.00 0.00 0.00 75 992.3
20240227015546 40 160 0.0 0.0 0.00 0.00 0.00 75 992.3
20240227015042 41 160 0.0 1.0 0.00 0.00 0.00 75 991.9
20240227014541 40 161 0.0 0.0 0.00 0.00 0.00 77 991.9
20240227014039 40 161 0.0 0.0 0.00 0.00 0.00 75 992.3
20240227013537 41 161 0.0 0.0 0.00 0.00 0.00 74 992.3
20240227013037 41 161 0.0 0.0 0.00 0.00 0.00 73 992.3
20240227012535 42 161 0.0 0.0 0.00 0.00 0.00 72 992.3
20240227012035 42 161 0.0 0.0 0.00 0.00 0.00 71 992.3
20240227011534 43 162 0.0 0.0 0.00 0.00 0.00 70 992.3
20240227011033 42 162 0.0 0.0 0.00 0.00 0.00 71 992.3
20240227010531 42 162 0.0 0.0 0.00 0.00 0.00 71 992.6
20240227010029 44 162 0.0 0.0 0.00 0.00 0.00 67 992.6
20240227005528 45 162 0.0 0.0 0.00 0.00 0.00 66 992.3
20240227005026 46 156 0.0 1.0 0.00 0.00 0.00 66 992.3
20240227004524 47 164 0.0 0.0 0.00 0.00 0.00 64 992.3
20240227004024 46 164 0.0 1.0 0.00 0.00 0.00 64 992.3
20240227003523 46 147 1.0 1.0 0.00 0.00 0.00 64 992.3
20240227003022 48 158 0.0 1.0 0.00 0.00 0.00 62 992.3
20240227002521 48 140 1.0 1.0 0.00 0.00 0.00 61 992.3
20240227002020 49 163 0.0 1.0 0.00 0.00 0.00 60 992.3
20240227001520 50 166 0.0 0.0 0.00 0.00 0.00 59 992.3
20240227001019 50 159 1.0 1.0 0.00 0.00 0.00 58 992.3
20240227000518 50 160 0.0 0.0 0.00 0.00 0.00 58 992.3
20240227000017 51 164 0.0 1.0 0.00 0.00 0.00 58 992.3
20240226235516 51 166 0.0 0.0 0.00 0.00 0.00 57 992.3
20240226235014 52 163 0.0 1.0 0.00 0.00 0.00 56 992.3